createdAt,value
2022-09-16T00:02:04.107Z,66.03
2022-09-16T00:04:33.272Z,67.04
2022-09-16T00:07:02.593Z,66.70
2022-09-16T00:09:32.989Z,66.26
2022-09-16T00:12:02.708Z,66.61
2022-09-16T00:14:32.006Z,66.61
2022-09-16T00:17:01.100Z,66.92
2022-09-16T00:19:30.348Z,67.03
2022-09-16T00:21:59.291Z,66.34
2022-09-16T00:24:28.435Z,66.55
2022-09-16T00:26:59.029Z,66.75
2022-09-16T00:29:28.119Z,65.89
2022-09-16T00:31:57.032Z,65.78
2022-09-16T00:34:26.691Z,65.86
2022-09-16T00:36:55.552Z,65.68
2022-09-16T00:39:24.920Z,65.89
2022-09-16T00:41:54.296Z,65.93
2022-09-16T00:44:57.725Z,65.70
2022-09-16T00:47:32.487Z,65.50
2022-09-16T00:50:08.151Z,65.46
2022-09-16T00:52:38.020Z,64.92
2022-09-16T00:55:10.465Z,65.31
2022-09-16T00:57:41.521Z,64.47
2022-09-16T01:00:13.939Z,64.13
2022-09-16T01:02:45.833Z,64.54
2022-09-16T01:05:17.602Z,64.00
2022-09-16T01:07:48.976Z,64.36
2022-09-16T01:10:21.036Z,64.26
2022-09-16T01:12:52.695Z,64.35
2022-09-16T01:15:25.563Z,65.45
2022-09-16T01:18:05.406Z,65.01
2022-09-16T01:21:02.334Z,65.27
2022-09-16T01:23:59.351Z,65.93
2022-09-16T01:26:52.064Z,67.12
2022-09-16T01:29:40.173Z,66.39
2022-09-16T01:32:17.589Z,68.12
2022-09-16T01:34:54.227Z,68.30
2022-09-16T01:37:35.082Z,68.72
2022-09-16T01:40:11.887Z,67.66
2022-09-16T01:42:48.056Z,67.93
2022-09-16T01:45:23.557Z,68.78
2022-09-16T01:48:01.839Z,69.40
2022-09-16T01:50:37.818Z,69.08
2022-09-16T01:53:15.665Z,68.96
2022-09-16T01:55:50.183Z,69.06
2022-09-16T01:58:26.451Z,69.43
2022-09-16T02:01:00.564Z,70.85
2022-09-16T02:03:35.339Z,69.49
2022-09-16T02:06:08.920Z,69.62
2022-09-16T02:08:44.188Z,70.20
2022-09-16T02:11:17.015Z,69.62
2022-09-16T02:13:50.670Z,69.22
2022-09-16T02:16:25.512Z,69.14
2022-09-16T02:19:02.119Z,69.20
2022-09-16T02:21:34.835Z,68.33
2022-09-16T02:24:09.614Z,67.78
2022-09-16T02:26:42.106Z,67.28
2022-09-16T02:29:15.589Z,67.09
2022-09-16T02:36:32.496Z,68.58
2022-09-16T02:39:08.715Z,69.42
2022-09-16T02:41:39.257Z,68.35
2022-09-16T02:44:09.614Z,68.55
2022-09-16T02:46:48.228Z,70.11
2022-09-16T02:49:24.884Z,69.85
2022-09-16T02:51:59.970Z,68.99
2022-09-16T02:54:37.987Z,69.89
2022-09-16T02:57:08.266Z,69.84
2022-09-16T02:59:38.537Z,70.85
2022-09-16T03:02:07.725Z,70.59
2022-09-16T03:04:37.094Z,71.24
2022-09-16T03:07:10.843Z,71.04
2022-09-16T03:09:43.925Z,70.45
2022-09-16T03:12:32.847Z,70.10
2022-09-16T03:15:42.325Z,69.51
2022-09-16T03:18:23.823Z,69.34
2022-09-16T03:20:59.978Z,68.73
2022-09-16T03:23:45.055Z,69.55
2022-09-16T03:26:23.606Z,70.21
2022-09-16T03:29:04.472Z,69.07
2022-09-16T03:31:38.887Z,70.00
2022-09-16T03:34:11.150Z,70.37
2022-09-16T03:36:46.192Z,70.61
2022-09-16T03:39:17.291Z,70.59
2022-09-16T03:41:46.242Z,70.38
2022-09-16T03:44:15.177Z,70.96
2022-09-16T03:46:44.584Z,71.34
2022-09-16T03:49:13.909Z,70.79
2022-09-16T03:51:42.871Z,70.14
2022-09-16T03:54:11.968Z,71.02
2022-09-16T03:56:42.630Z,71.02
2022-09-16T03:59:11.898Z,70.86
2022-09-16T04:01:41.364Z,70.54
2022-09-16T04:04:10.406Z,70.12
2022-09-16T04:06:39.393Z,70.12
2022-09-16T04:09:08.977Z,70.64
2022-09-16T04:11:37.948Z,70.73
2022-09-16T04:14:08.879Z,70.64
2022-09-16T04:16:38.288Z,70.18
2022-09-16T04:19:07.322Z,69.94
2022-09-16T04:21:36.773Z,70.21
2022-09-16T04:24:10.678Z,70.33
2022-09-16T04:26:41.938Z,69.92
2022-09-16T04:29:12.929Z,70.82
2022-09-16T04:31:42.150Z,70.23
2022-09-16T04:34:12.881Z,69.91
2022-09-16T04:36:41.985Z,69.08
2022-09-16T04:39:12.286Z,69.92
2022-09-16T04:41:41.655Z,69.19
2022-09-16T04:44:13.014Z,69.03
2022-09-16T04:46:42.349Z,68.24
2022-09-16T04:49:12.783Z,68.37
2022-09-16T04:51:41.887Z,68.50
2022-09-16T04:54:11.779Z,68.39
2022-09-16T04:56:40.815Z,68.12
2022-09-16T04:59:11.943Z,68.08
2022-09-16T05:01:41.992Z,68.53
2022-09-16T05:04:11.977Z,68.45
2022-09-16T05:06:44.649Z,67.97
2022-09-16T05:09:14.266Z,67.80
2022-09-16T05:11:43.482Z,68.23
2022-09-16T05:14:17.005Z,68.91
2022-09-16T05:16:47.240Z,67.78
2022-09-16T05:19:19.485Z,67.48
2022-09-16T05:21:49.030Z,67.81
2022-09-16T05:24:18.115Z,67.05
2022-09-16T05:26:47.232Z,68.06
2022-09-16T05:29:18.552Z,67.63
2022-09-16T05:31:48.656Z,68.28
2022-09-16T05:34:21.308Z,67.53
2022-09-16T05:36:54.183Z,68.17
2022-09-16T05:39:25.239Z,68.32
2022-09-16T05:41:57.047Z,67.14
2022-09-16T05:44:28.983Z,67.96
2022-09-16T05:46:58.601Z,68.25
2022-09-16T05:49:28.204Z,67.45
2022-09-16T05:51:58.302Z,67.15
2022-09-16T05:54:28.071Z,67.48
2022-09-16T05:56:57.438Z,67.53
2022-09-16T05:59:27.894Z,67.11
2022-09-16T06:01:57.157Z,66.70
2022-09-16T06:04:26.509Z,65.50
2022-09-16T06:06:55.423Z,65.78
2022-09-16T06:09:26.024Z,65.01
2022-09-16T06:12:01.443Z,64.34
2022-09-16T06:14:32.411Z,64.72
2022-09-16T06:17:01.818Z,64.29
2022-09-16T06:19:30.818Z,64.07
2022-09-16T06:21:59.821Z,64.33
2022-09-16T06:24:29.083Z,63.56
2022-09-16T06:26:58.018Z,63.66
2022-09-16T06:29:27.074Z,63.16
2022-09-16T06:31:57.877Z,62.72
2022-09-16T06:34:27.675Z,63.23
2022-09-16T06:36:56.608Z,62.62
2022-09-16T06:39:25.922Z,61.73
2022-09-16T06:41:59.870Z,61.29
2022-09-16T06:44:42.489Z,60.77
2022-09-16T06:47:12.854Z,61.04
2022-09-16T06:49:41.971Z,61.40
2022-09-16T06:52:11.938Z,61.22
2022-09-16T06:54:40.862Z,59.61
2022-09-16T06:57:12.295Z,60.70
2022-09-16T06:59:42.085Z,60.65
2022-09-16T07:02:13.390Z,60.75
2022-09-16T07:04:42.703Z,60.45
2022-09-16T07:07:11.977Z,60.10
2022-09-16T07:09:41.231Z,60.23
2022-09-16T07:12:10.521Z,58.94
2022-09-16T07:14:39.652Z,58.30
2022-09-16T07:17:09.137Z,58.33
2022-09-16T07:19:41.977Z,58.85
2022-09-16T07:22:11.607Z,58.14
2022-09-16T07:24:40.754Z,59.16
2022-09-16T07:27:09.670Z,58.64
2022-09-16T07:29:38.809Z,59.76
2022-09-16T07:32:08.621Z,58.74
2022-09-16T07:34:39.014Z,59.12
2022-09-16T07:37:08.029Z,58.33
2022-09-16T07:39:37.145Z,57.98
2022-09-16T07:42:07.174Z,56.93
2022-09-16T07:44:36.141Z,57.80
2022-09-16T07:47:05.546Z,57.43
2022-09-16T07:49:34.502Z,57.55
2022-09-16T07:52:04.914Z,57.22
2022-09-16T07:54:34.154Z,56.93
2022-09-16T07:57:02.986Z,57.06
2022-09-16T07:59:31.890Z,57.03
2022-09-16T08:02:01.396Z,57.37
2022-09-16T08:04:30.702Z,57.31
2022-09-16T08:06:59.578Z,56.38
2022-09-16T08:09:40.175Z,56.63
2022-09-16T08:12:14.769Z,55.81
2022-09-16T08:14:44.266Z,54.91
2022-09-16T08:17:13.110Z,53.77
2022-09-16T08:19:41.956Z,53.50
2022-09-16T08:22:11.203Z,53.85
2022-09-16T08:24:41.726Z,52.43
2022-09-16T08:27:10.774Z,51.44
2022-09-16T08:29:39.913Z,51.09
2022-09-16T08:32:08.709Z,51.52
2022-09-16T08:34:39.375Z,49.91
2022-09-16T08:37:09.168Z,50.38
2022-09-16T08:39:38.278Z,50.05
2022-09-16T08:42:36.748Z,49.55
2022-09-16T08:45:15.561Z,50.10
2022-09-16T08:47:51.922Z,49.46
2022-09-16T08:50:30.773Z,49.24
2022-09-16T08:53:04.242Z,49.49
2022-09-16T08:55:39.814Z,49.58
2022-09-16T08:58:17.296Z,49.63
2022-09-16T09:00:50.720Z,49.79
2022-09-16T09:03:34.948Z,49.04
2022-09-16T09:06:09.704Z,49.78
2022-09-16T09:08:50.944Z,49.43
2022-09-16T09:11:29.154Z,49.86
2022-09-16T09:14:11.719Z,48.39
2022-09-16T09:16:50.136Z,47.22
2022-09-16T09:19:29.927Z,46.94
2022-09-16T09:22:07.398Z,46.98
2022-09-16T09:24:57.125Z,46.18
2022-09-16T09:27:32.966Z,46.68
2022-09-16T09:30:11.977Z,47.47
2022-09-16T09:33:03.795Z,47.68
2022-09-16T09:35:48.079Z,47.15
2022-09-16T09:38:43.382Z,48.26
2022-09-16T09:41:17.763Z,48.49
2022-09-16T09:43:54.073Z,47.34
2022-09-16T09:46:30.214Z,47.46
2022-09-16T09:49:05.427Z,46.96
2022-09-16T09:51:39.298Z,46.40
2022-09-16T09:54:22.177Z,45.09
2022-09-16T09:56:55.334Z,45.39
2022-09-16T09:59:30.883Z,44.60
2022-09-16T10:02:01.933Z,44.31
2022-09-16T10:04:38.312Z,43.46
2022-09-16T10:07:09.299Z,43.86
2022-09-16T10:09:47.194Z,43.92
2022-09-16T10:12:26.949Z,44.36
2022-09-16T10:14:56.272Z,44.10
2022-09-16T10:17:28.865Z,44.04
2022-09-16T10:20:01.875Z,44.77
2022-09-16T10:22:32.547Z,44.15
2022-09-16T10:25:08.923Z,40.44
2022-09-16T10:27:39.012Z,41.08
2022-09-16T10:30:15.643Z,43.78
2022-09-16T10:32:55.512Z,42.60
2022-09-16T10:35:27.104Z,39.47
2022-09-16T10:37:58.414Z,36.13
2022-09-16T10:40:28.825Z,32.82
2022-09-16T10:43:07.626Z,34.89
2022-09-16T10:45:45.063Z,35.70
2022-09-16T10:48:18.231Z,31.33
2022-09-16T10:50:55.358Z,33.34
2022-09-16T10:53:29.159Z,33.12
2022-09-16T10:56:00.812Z,34.23
2022-09-16T10:58:30.162Z,40.91
2022-09-16T11:01:11.767Z,43.37
2022-09-16T11:04:12.388Z,44.92
2022-09-16T11:06:52.807Z,46.31
2022-09-16T11:09:29.411Z,47.39
2022-09-16T11:12:36.752Z,46.37
2022-09-16T11:15:15.700Z,39.20
2022-09-16T11:17:58.361Z,35.25
2022-09-16T11:20:49.268Z,36.29
2022-09-16T11:23:33.739Z,39.66
2022-09-16T11:26:09.610Z,42.12
2022-09-16T11:29:07.090Z,43.33
2022-09-16T11:31:48.145Z,44.49
2022-09-16T11:34:39.852Z,46.41
2022-09-16T11:37:20.739Z,47.33
2022-09-16T11:40:07.114Z,47.28
2022-09-16T11:42:43.377Z,47.22
2022-09-16T11:45:35.405Z,47.62
2022-09-16T11:48:35.986Z,45.78
2022-09-16T11:51:12.784Z,42.84
2022-09-16T11:53:55.576Z,40.95
2022-09-16T11:56:36.366Z,40.62
2022-09-16T11:59:13.900Z,39.68
2022-09-16T12:01:47.168Z,41.10
2022-09-16T12:04:24.129Z,38.55
2022-09-16T12:07:01.258Z,41.51
2022-09-16T12:09:39.634Z,43.93
2022-09-16T12:12:14.970Z,46.05
2022-09-16T12:14:48.226Z,49.99
2022-09-16T12:17:21.632Z,52.04
2022-09-16T12:19:56.891Z,53.82
2022-09-16T12:22:31.513Z,55.86
2022-09-16T12:25:12.530Z,55.29
2022-09-16T12:27:49.166Z,48.43
2022-09-16T12:30:21.482Z,49.44
2022-09-16T12:32:59.014Z,49.73
2022-09-16T12:35:34.414Z,47.29
2022-09-16T12:38:05.633Z,45.83
2022-09-16T12:41:12.263Z,40.14
2022-09-16T12:44:23.309Z,37.70
2022-09-16T12:47:21.526Z,35.48
2022-09-16T12:50:13.862Z,33.02
2022-09-16T12:53:11.843Z,35.53
2022-09-16T12:55:54.102Z,32.60
2022-09-16T12:58:53.613Z,32.60
2022-09-16T13:01:26.374Z,34.76
2022-09-16T13:03:59.114Z,36.82
2022-09-16T13:06:31.793Z,39.03
2022-09-16T13:09:16.275Z,39.93
2022-09-16T13:14:49.327Z,39.78
2022-09-16T13:17:29.983Z,37.93
2022-09-16T13:20:07.126Z,35.08
2022-09-16T13:22:46.240Z,37.46
2022-09-16T13:25:24.556Z,32.69
2022-09-16T13:27:59.412Z,34.30
2022-09-16T13:30:34.820Z,30.42
2022-09-16T13:33:26.531Z,30.68
2022-09-16T13:36:17.339Z,32.41
2022-09-16T13:38:52.798Z,38.42
2022-09-16T13:41:34.192Z,38.16
2022-09-16T13:44:05.288Z,39.53
2022-09-16T13:46:37.794Z,40.57
2022-09-16T13:49:23.769Z,43.43
2022-09-16T13:51:53.089Z,43.68
2022-09-16T13:54:30.083Z,44.73
2022-09-16T13:57:18.424Z,44.01
2022-09-16T14:00:05.234Z,42.23
2022-09-16T14:03:02.737Z,35.32
2022-09-16T14:05:44.961Z,30.01
2022-09-16T14:08:22.555Z,31.05
2022-09-16T14:10:59.750Z,31.00
2022-09-16T14:13:39.469Z,30.54
2022-09-16T14:16:18.183Z,34.15
2022-09-16T14:18:55.556Z,29.27
2022-09-16T14:21:25.763Z,37.48
2022-09-16T14:26:29.303Z,42.22
2022-09-16T14:29:04.755Z,41.45
2022-09-16T14:31:35.412Z,40.96
2022-09-16T14:34:10.476Z,42.86
2022-09-16T14:36:43.461Z,45.31
2022-09-16T14:39:16.111Z,47.07
2022-09-16T14:41:48.846Z,50.12
2022-09-16T14:44:26.800Z,53.35
2022-09-16T14:47:07.760Z,50.09
2022-09-16T14:49:44.698Z,50.41
2022-09-16T14:52:21.380Z,50.87
2022-09-16T14:54:51.935Z,53.00
2022-09-16T14:57:23.927Z,52.14
2022-09-16T14:59:55.389Z,52.01
2022-09-16T15:02:28.940Z,50.72
2022-09-16T15:05:11.652Z,50.82
2022-09-16T15:08:02.503Z,48.21
2022-09-16T15:10:50.069Z,49.73
2022-09-16T15:13:23.280Z,51.77
2022-09-16T15:15:56.130Z,52.71
2022-09-16T15:18:28.700Z,55.05
2022-09-16T15:21:06.225Z,55.29
2022-09-16T15:23:38.409Z,57.48
2022-09-16T15:26:14.818Z,56.98
2022-09-16T15:28:55.954Z,54.33
2022-09-16T15:31:37.095Z,56.60
2022-09-16T15:34:21.775Z,56.97
2022-09-16T15:36:56.535Z,56.96
2022-09-16T15:39:28.706Z,56.89
2022-09-16T15:42:15.483Z,55.27
2022-09-16T15:44:49.090Z,55.70
2022-09-16T15:47:21.907Z,57.16
2022-09-16T15:49:55.469Z,58.73
2022-09-16T15:52:25.907Z,57.72
2022-09-16T15:55:00.270Z,57.88
2022-09-16T15:57:36.574Z,58.72
2022-09-16T16:00:14.893Z,59.47
2022-09-16T16:02:49.476Z,59.60
2022-09-16T16:05:21.379Z,60.00
2022-09-16T16:07:54.498Z,60.41
2022-09-16T16:10:25.996Z,60.26
2022-09-16T16:12:57.264Z,60.80
2022-09-16T16:15:31.611Z,60.10
2022-09-16T16:18:02.626Z,60.66
2022-09-16T16:20:34.285Z,60.04
2022-09-16T16:23:05.240Z,60.96
2022-09-16T16:25:35.633Z,61.33
2022-09-16T16:28:04.730Z,62.14
2022-09-16T16:30:33.757Z,62.29
2022-09-16T16:33:02.936Z,61.37
2022-09-16T16:35:31.922Z,61.28
2022-09-16T16:38:01.116Z,61.24
2022-09-16T16:40:31.598Z,61.33
2022-09-16T16:43:00.492Z,61.46
2022-09-16T16:45:31.518Z,61.97
2022-09-16T16:48:00.867Z,62.30
2022-09-16T16:50:29.753Z,62.34
2022-09-16T16:52:58.609Z,61.88
2022-09-16T16:55:27.883Z,62.26
2022-09-16T16:57:58.303Z,61.67
2022-09-16T17:00:27.931Z,62.39
2022-09-16T17:02:57.349Z,62.21
2022-09-16T17:05:26.301Z,61.90
2022-09-16T17:07:55.277Z,62.16
2022-09-16T17:10:24.533Z,63.29
2022-09-16T17:12:53.718Z,63.77
2022-09-16T17:15:24.135Z,63.08
2022-09-16T17:17:53.455Z,62.40
2022-09-16T17:20:23.196Z,61.91
2022-09-16T17:22:53.091Z,62.24
2022-09-16T17:25:22.739Z,62.36
2022-09-16T17:27:51.588Z,61.81
2022-09-16T17:30:20.555Z,61.68
2022-09-16T17:32:51.084Z,61.78
2022-09-16T17:35:20.135Z,62.21
2022-09-16T17:37:49.061Z,62.74
2022-09-16T17:40:18.509Z,62.40
2022-09-16T17:42:51.674Z,62.92
2022-09-16T17:45:20.953Z,63.46
2022-09-16T17:47:51.697Z,62.56
2022-09-16T17:50:23.038Z,63.22
2022-09-16T17:52:52.634Z,64.04
2022-09-16T17:55:21.558Z,63.92
2022-09-16T17:57:50.457Z,62.98
2022-09-16T18:00:20.146Z,63.63
2022-09-16T18:02:51.100Z,63.22
2022-09-16T18:05:21.143Z,63.15
2022-09-16T18:07:51.583Z,63.40
2022-09-16T18:10:20.814Z,62.88
2022-09-16T18:12:49.987Z,62.26
2022-09-16T18:15:18.980Z,62.65
2022-09-16T18:17:47.989Z,62.88
2022-09-16T18:20:18.970Z,61.88
2022-09-16T18:22:49.068Z,62.02
2022-09-16T18:25:18.531Z,62.20
2022-09-16T18:27:47.550Z,61.97
2022-09-16T18:30:19.100Z,61.83
2022-09-16T18:32:50.352Z,62.41
2022-09-16T18:35:20.803Z,62.08
2022-09-16T18:37:49.709Z,61.49
2022-09-16T18:40:20.183Z,61.97
2022-09-16T18:42:50.235Z,61.76
2022-09-16T18:45:20.107Z,61.43
2022-09-16T18:47:50.046Z,62.35
2022-09-16T18:50:20.852Z,62.10
2022-09-16T18:52:50.967Z,61.47
2022-09-16T18:55:21.884Z,62.07
2022-09-16T18:57:51.616Z,61.74
2022-09-16T19:00:22.900Z,62.38
2022-09-16T19:02:53.008Z,62.77
2022-09-16T19:05:26.422Z,63.08
2022-09-16T19:08:01.020Z,62.70
2022-09-16T19:10:30.901Z,63.00
2022-09-16T19:13:01.551Z,62.89
2022-09-16T19:15:33.396Z,63.01
2022-09-16T19:18:02.230Z,62.90
2022-09-16T19:20:32.987Z,63.12
2022-09-16T19:23:03.138Z,63.79
2022-09-16T19:25:35.132Z,63.00
2022-09-16T19:28:04.372Z,62.90
2022-09-16T19:30:33.627Z,62.60
2022-09-16T19:33:03.062Z,63.57
2022-09-16T19:35:36.343Z,63.24
2022-09-16T19:38:05.709Z,63.68
2022-09-16T19:40:34.684Z,63.72
2022-09-16T19:43:03.792Z,64.47
2022-09-16T19:45:34.357Z,64.36
2022-09-16T19:48:03.538Z,64.07
2022-09-16T19:50:32.447Z,63.76
2022-09-16T19:53:03.191Z,63.11
2022-09-16T19:55:32.423Z,64.59
2022-09-16T19:58:02.706Z,65.16
2022-09-16T20:00:46.860Z,65.70
2022-09-16T20:03:20.875Z,66.26
2022-09-16T20:05:50.512Z,65.87
2022-09-16T20:08:21.281Z,67.02
2022-09-16T20:10:50.473Z,67.09
2022-09-16T20:13:20.704Z,67.11
2022-09-16T20:15:50.006Z,68.19
2022-09-16T20:18:19.536Z,68.22
2022-09-16T20:20:49.425Z,68.65
2022-09-16T20:23:20.249Z,69.69
2022-09-16T20:25:56.787Z,69.84
2022-09-16T20:28:26.426Z,70.50
2022-09-16T20:30:55.943Z,72.71
2022-09-16T20:33:24.981Z,72.70
2022-09-16T20:35:53.973Z,73.06
2022-09-16T20:38:24.788Z,72.66
2022-09-16T20:40:53.856Z,73.50
2022-09-16T20:43:27.285Z,72.36
2022-09-16T20:46:06.020Z,72.15
2022-09-16T20:48:35.177Z,73.99
2022-09-16T20:51:06.771Z,73.67
2022-09-16T20:53:38.650Z,74.06
2022-09-16T20:56:10.974Z,75.30
2022-09-16T20:58:40.263Z,75.30
2022-09-16T21:01:12.591Z,75.31
2022-09-16T21:03:42.014Z,75.46
2022-09-16T21:06:15.015Z,76.10
2022-09-16T21:08:46.581Z,76.31
2022-09-16T21:11:17.826Z,75.02
2022-09-16T21:13:53.985Z,76.11
2022-09-16T21:16:24.772Z,75.50
2022-09-16T21:18:55.788Z,75.10
2022-09-16T21:21:26.573Z,75.75
2022-09-16T21:23:59.047Z,75.55
2022-09-16T21:26:30.394Z,75.91
2022-09-16T21:29:01.049Z,76.29
2022-09-16T21:31:33.555Z,75.21
2022-09-16T21:34:03.523Z,74.79
2022-09-16T21:36:33.836Z,75.43
2022-09-16T21:39:04.783Z,74.14
2022-09-16T21:41:34.215Z,75.27
2022-09-16T21:44:03.926Z,74.64
2022-09-16T21:46:35.382Z,74.11
2022-09-16T21:49:05.253Z,74.03
2022-09-16T21:51:38.195Z,73.67
2022-09-16T21:54:10.538Z,74.82
2022-09-16T21:56:41.559Z,73.20
2022-09-16T21:59:11.250Z,74.60
2022-09-16T22:01:40.833Z,73.56
2022-09-16T22:04:14.144Z,73.25
2022-09-16T22:06:44.435Z,73.89
2022-09-16T22:09:14.846Z,73.66
2022-09-16T22:11:44.444Z,73.37
2022-09-16T22:14:13.681Z,73.13
2022-09-16T22:16:42.755Z,72.50
2022-09-16T22:19:14.578Z,72.65
2022-09-16T22:21:46.069Z,72.44
2022-09-16T22:24:20.199Z,72.83
2022-09-16T22:26:50.362Z,72.54
2022-09-16T22:29:20.105Z,71.88
2022-09-16T22:31:49.334Z,72.03
2022-09-16T22:34:18.517Z,71.98
2022-09-16T22:36:48.012Z,72.20
2022-09-16T22:39:19.852Z,71.51
2022-09-16T22:41:49.108Z,72.35
2022-09-16T22:44:18.423Z,71.91
2022-09-16T22:46:48.723Z,71.96
2022-09-16T22:49:18.261Z,71.62
2022-09-16T22:51:47.292Z,72.28
2022-09-16T22:54:17.773Z,71.71
2022-09-16T22:56:46.969Z,72.84
2022-09-16T22:59:19.395Z,72.16
2022-09-16T23:01:49.282Z,72.25
2022-09-16T23:04:19.112Z,72.54
2022-09-16T23:06:48.607Z,71.34
2022-09-16T23:09:19.410Z,73.46
2022-09-16T23:11:48.515Z,72.77
2022-09-16T23:14:21.679Z,73.30
2022-09-16T23:16:51.413Z,73.41
2022-09-16T23:19:21.833Z,72.51
2022-09-16T23:21:51.462Z,72.90
2022-09-16T23:24:23.124Z,73.79
2022-09-16T23:26:52.337Z,73.72
2022-09-16T23:29:21.338Z,73.82
2022-09-16T23:31:50.225Z,73.46
2022-09-16T23:34:21.959Z,73.83
2022-09-16T23:36:51.521Z,73.26
2022-09-16T23:39:21.928Z,73.23
2022-09-16T23:41:51.187Z,73.81
2022-09-16T23:44:20.654Z,73.61
2022-09-16T23:46:49.714Z,73.14
2022-09-16T23:49:20.405Z,73.75
2022-09-16T23:51:49.902Z,73.79
2022-09-16T23:54:19.188Z,72.43
2022-09-16T23:56:49.422Z,72.96
2022-09-16T23:59:18.813Z,74.00
